Petionville, Haiti
Current Conditions -  °F | °C
As of 1:00 PM on Monday 24 Nov 2014 (Local Time) from MDBH Reporting Station
Scattered Clouds Scattered Clouds  
Wind Chill: 88°   Ceiling: Unl
Heat Index: 100°   Visibility: 6mi
Dew Point: 77°   Wind: 17mph
Humidity: 70%   Direction: 130°SE
Pressure: 29.97"   Gusts: NA
Location:  18.52°N, 72.29°W
Report Text: MDBH 241800Z 13015KT 9999 FEW020CB FEW022 SCT100 31/25 Q1015 CB/SE
Loading
Personal Weather Stations






























Interactive Weather Map New forecast layout! Learn more

10-Day Weather Forecast

Advertisements
Track Severe Weather on mobile